sensor_id;sensor_type;location;lat;lon;timestamp;P1;durP1;ratioP1;P2;durP2;ratioP2
22922;SDS011;11627;51.322;22.816;2023-09-19T00:00:50;19.30;;;11.60;;
22922;SDS011;11627;51.322;22.816;2023-09-19T00:03:24;18.85;;;11.55;;
22922;SDS011;11627;51.322;22.816;2023-09-19T00:05:55;18.83;;;11.57;;
22922;SDS011;11627;51.322;22.816;2023-09-19T00:08:25;17.17;;;11.85;;
22922;SDS011;11627;51.322;22.816;2023-09-19T00:10:53;17.83;;;11.32;;
22922;SDS011;11627;51.322;22.816;2023-09-19T00:13:21;18.40;;;11.43;;
22922;SDS011;11627;51.322;22.816;2023-09-19T00:15:50;19.38;;;11.60;;
22922;SDS011;11627;51.322;22.816;2023-09-19T00:18:20;16.70;;;11.32;;
22922;SDS011;11627;51.322;22.816;2023-09-19T00:20:48;15.35;;;10.75;;
22922;SDS011;11627;51.322;22.816;2023-09-19T00:23:15;16.80;;;10.60;;
22922;SDS011;11627;51.322;22.816;2023-09-19T00:25:43;16.52;;;11.85;;
22922;SDS011;11627;51.322;22.816;2023-09-19T00:28:11;18.33;;;11.75;;
22922;SDS011;11627;51.322;22.816;2023-09-19T00:30:39;18.00;;;11.07;;
22922;SDS011;11627;51.322;22.816;2023-09-19T00:33:09;15.18;;;10.60;;
22922;SDS011;11627;51.322;22.816;2023-09-19T00:35:51;16.58;;;11.05;;
22922;SDS011;11627;51.322;22.816;2023-09-19T00:38:21;19.33;;;11.40;;
22922;SDS011;11627;51.322;22.816;2023-09-19T00:40:53;20.00;;;11.27;;
22922;SDS011;11627;51.322;22.816;2023-09-19T00:43:26;17.40;;;11.50;;
22922;SDS011;11627;51.322;22.816;2023-09-19T00:45:54;16.90;;;11.10;;
22922;SDS011;11627;51.322;22.816;2023-09-19T00:48:21;15.07;;;10.75;;
22922;SDS011;11627;51.322;22.816;2023-09-19T00:50:51;16.77;;;11.15;;
22922;SDS011;11627;51.322;22.816;2023-09-19T00:53:21;16.40;;;11.10;;
22922;SDS011;11627;51.322;22.816;2023-09-19T00:55:50;16.98;;;10.93;;
22922;SDS011;11627;51.322;22.816;2023-09-19T00:58:18;18.92;;;10.93;;
22922;SDS011;11627;51.322;22.816;2023-09-19T01:00:46;17.35;;;10.98;;
22922;SDS011;11627;51.322;22.816;2023-09-19T01:03:17;14.45;;;10.35;;
22922;SDS011;11627;51.322;22.816;2023-09-19T01:05:45;15.90;;;10.88;;
22922;SDS011;11627;51.322;22.816;2023-09-19T01:08:12;20.13;;;11.10;;
22922;SDS011;11627;51.322;22.816;2023-09-19T01:10:39;17.83;;;10.75;;
22922;SDS011;11627;51.322;22.816;2023-09-19T01:23:48;17.70;;;10.63;;
22922;SDS011;11627;51.322;22.816;2023-09-19T01:29:46;18.48;;;10.88;;
22922;SDS011;11627;51.322;22.816;2023-09-19T01:32:19;16.55;;;10.82;;
22922;SDS011;11627;51.322;22.816;2023-09-19T01:37:24;13.95;;;10.48;;
22922;SDS011;11627;51.322;22.816;2023-09-19T01:39:55;16.63;;;10.73;;
22922;SDS011;11627;51.322;22.816;2023-09-19T01:45:51;16.88;;;10.55;;
22922;SDS011;11627;51.322;22.816;2023-09-19T01:52:10;17.10;;;10.70;;
22922;SDS011;11627;51.322;22.816;2023-09-19T01:54:51;19.20;;;11.05;;
22922;SDS011;11627;51.322;22.816;2023-09-19T01:57:32;16.63;;;10.20;;
22922;SDS011;11627;51.322;22.816;2023-09-19T02:00:09;14.23;;;10.82;;
22922;SDS011;11627;51.322;22.816;2023-09-19T02:02:44;15.55;;;10.43;;
22922;SDS011;11627;51.322;22.816;2023-09-19T02:05:12;17.92;;;10.68;;
22922;SDS011;11627;51.322;22.816;2023-09-19T02:07:51;14.95;;;10.75;;
22922;SDS011;11627;51.322;22.816;2023-09-19T02:10:19;20.38;;;11.07;;
22922;SDS011;11627;51.322;22.816;2023-09-19T02:12:47;15.85;;;10.57;;
22922;SDS011;11627;51.322;22.816;2023-09-19T02:15:13;15.55;;;10.68;;
22922;SDS011;11627;51.322;22.816;2023-09-19T02:17:44;16.30;;;10.65;;
22922;SDS011;11627;51.322;22.816;2023-09-19T02:20:12;16.27;;;11.30;;
22922;SDS011;11627;51.322;22.816;2023-09-19T02:22:44;18.90;;;11.32;;
22922;SDS011;11627;51.322;22.816;2023-09-19T02:25:10;19.52;;;11.95;;
22922;SDS011;11627;51.322;22.816;2023-09-19T02:27:37;18.27;;;11.20;;
22922;SDS011;11627;51.322;22.816;2023-09-19T02:30:06;19.58;;;10.35;;
22922;SDS011;11627;51.322;22.816;2023-09-19T02:32:34;16.60;;;10.70;;
22922;SDS011;11627;51.322;22.816;2023-09-19T02:35:05;14.88;;;10.40;;
22922;SDS011;11627;51.322;22.816;2023-09-19T02:37:33;15.68;;;10.93;;
22922;SDS011;11627;51.322;22.816;2023-09-19T02:40:00;16.50;;;11.02;;
22922;SDS011;11627;51.322;22.816;2023-09-19T02:42:28;15.85;;;10.60;;
22922;SDS011;11627;51.322;22.816;2023-09-19T02:44:55;16.42;;;11.05;;
22922;SDS011;11627;51.322;22.816;2023-09-19T02:47:23;18.05;;;11.65;;
22922;SDS011;11627;51.322;22.816;2023-09-19T02:49:50;14.52;;;10.35;;
22922;SDS011;11627;51.322;22.816;2023-09-19T02:52:17;16.48;;;10.63;;
22922;SDS011;11627;51.322;22.816;2023-09-19T02:54:45;17.52;;;10.90;;
22922;SDS011;11627;51.322;22.816;2023-09-19T02:57:13;14.68;;;10.25;;
22922;SDS011;11627;51.322;22.816;2023-09-19T02:59:43;15.95;;;10.60;;
22922;SDS011;11627;51.322;22.816;2023-09-19T03:02:11;17.52;;;10.50;;
22922;SDS011;11627;51.322;22.816;2023-09-19T03:04:38;16.33;;;10.50;;
22922;SDS011;11627;51.322;22.816;2023-09-19T03:07:05;14.73;;;10.30;;
22922;SDS011;11627;51.322;22.816;2023-09-19T03:09:32;18.33;;;10.27;;
22922;SDS011;11627;51.322;22.816;2023-09-19T03:11:58;15.63;;;10.77;;
22922;SDS011;11627;51.322;22.816;2023-09-19T03:14:25;16.48;;;10.65;;
22922;SDS011;11627;51.322;22.816;2023-09-19T03:16:56;18.25;;;10.40;;
22922;SDS011;11627;51.322;22.816;2023-09-19T03:19:23;18.02;;;10.25;;
22922;SDS011;11627;51.322;22.816;2023-09-19T03:21:52;15.80;;;9.98;;
22922;SDS011;11627;51.322;22.816;2023-09-19T03:24:19;17.75;;;10.15;;
22922;SDS011;11627;51.322;22.816;2023-09-19T03:26:46;18.92;;;10.50;;
22922;SDS011;11627;51.322;22.816;2023-09-19T03:29:13;16.40;;;11.00;;
22922;SDS011;11627;51.322;22.816;2023-09-19T03:31:42;16.70;;;10.75;;
22922;SDS011;11627;51.322;22.816;2023-09-19T03:34:09;17.45;;;10.90;;
22922;SDS011;11627;51.322;22.816;2023-09-19T03:36:37;16.83;;;10.27;;
22922;SDS011;11627;51.322;22.816;2023-09-19T03:39:04;15.85;;;10.45;;
22922;SDS011;11627;51.322;22.816;2023-09-19T03:41:31;15.55;;;10.25;;
22922;SDS011;11627;51.322;22.816;2023-09-19T03:44:00;13.52;;;9.95;;
22922;SDS011;11627;51.322;22.816;2023-09-19T03:46:27;17.38;;;10.02;;
22922;SDS011;11627;51.322;22.816;2023-09-19T03:48:55;14.23;;;10.20;;
22922;SDS011;11627;51.322;22.816;2023-09-19T03:51:22;15.75;;;10.60;;
22922;SDS011;11627;51.322;22.816;2023-09-19T03:53:49;16.13;;;9.73;;
22922;SDS011;11627;51.322;22.816;2023-09-19T03:56:17;15.40;;;10.45;;
22922;SDS011;11627;51.322;22.816;2023-09-19T03:58:45;13.15;;;9.93;;
22922;SDS011;11627;51.322;22.816;2023-09-19T04:01:12;14.77;;;9.98;;
22922;SDS011;11627;51.322;22.816;2023-09-19T04:03:39;13.85;;;9.90;;
22922;SDS011;11627;51.322;22.816;2023-09-19T04:06:14;17.70;;;10.30;;
22922;SDS011;11627;51.322;22.816;2023-09-19T04:08:41;18.40;;;10.85;;
22922;SDS011;11627;51.322;22.816;2023-09-19T04:11:09;15.13;;;10.52;;
22922;SDS011;11627;51.322;22.816;2023-09-19T04:13:37;14.05;;;10.15;;
22922;SDS011;11627;51.322;22.816;2023-09-19T04:16:04;14.43;;;10.02;;
22922;SDS011;11627;51.322;22.816;2023-09-19T04:18:32;18.17;;;10.32;;
22922;SDS011;11627;51.322;22.816;2023-09-19T04:21:03;13.00;;;9.60;;
22922;SDS011;11627;51.322;22.816;2023-09-19T04:23:32;15.52;;;9.85;;
22922;SDS011;11627;51.322;22.816;2023-09-19T04:25:59;17.48;;;10.15;;
22922;SDS011;11627;51.322;22.816;2023-09-19T04:28:30;14.68;;;9.43;;
22922;SDS011;11627;51.322;22.816;2023-09-19T04:30:59;14.15;;;9.55;;
22922;SDS011;11627;51.322;22.816;2023-09-19T04:33:26;20.58;;;10.90;;
22922;SDS011;11627;51.322;22.816;2023-09-19T04:35:53;19.35;;;10.65;;
22922;SDS011;11627;51.322;22.816;2023-09-19T04:38:21;21.83;;;9.73;;
22922;SDS011;11627;51.322;22.816;2023-09-19T04:40:49;15.25;;;10.00;;
22922;SDS011;11627;51.322;22.816;2023-09-19T04:43:16;16.15;;;10.15;;
22922;SDS011;11627;51.322;22.816;2023-09-19T04:45:44;13.27;;;9.60;;
22922;SDS011;11627;51.322;22.816;2023-09-19T04:48:14;18.65;;;9.70;;
22922;SDS011;11627;51.322;22.816;2023-09-19T04:50:42;12.10;;;9.25;;
22922;SDS011;11627;51.322;22.816;2023-09-19T04:53:10;17.63;;;9.30;;
22922;SDS011;11627;51.322;22.816;2023-09-19T04:55:37;15.65;;;10.10;;
22922;SDS011;11627;51.322;22.816;2023-09-19T04:58:04;13.23;;;9.57;;
22922;SDS011;11627;51.322;22.816;2023-09-19T05:00:31;13.93;;;9.52;;
22922;SDS011;11627;51.322;22.816;2023-09-19T05:03:01;12.30;;;9.43;;
22922;SDS011;11627;51.322;22.816;2023-09-19T05:05:30;14.82;;;9.65;;
22922;SDS011;11627;51.322;22.816;2023-09-19T05:07:58;15.65;;;9.57;;
22922;SDS011;11627;51.322;22.816;2023-09-19T05:10:25;12.07;;;9.50;;
22922;SDS011;11627;51.322;22.816;2023-09-19T05:12:56;15.57;;;9.90;;
22922;SDS011;11627;51.322;22.816;2023-09-19T05:15:23;14.93;;;9.88;;
22922;SDS011;11627;51.322;22.816;2023-09-19T05:17:52;11.95;;;9.13;;
22922;SDS011;11627;51.322;22.816;2023-09-19T05:20:21;15.88;;;10.50;;
22922;SDS011;11627;51.322;22.816;2023-09-19T05:22:59;13.65;;;9.23;;
22922;SDS011;11627;51.322;22.816;2023-09-19T05:25:28;14.93;;;9.15;;
22922;SDS011;11627;51.322;22.816;2023-09-19T05:27:58;15.25;;;9.80;;
22922;SDS011;11627;51.322;22.816;2023-09-19T05:30:27;12.77;;;9.52;;
22922;SDS011;11627;51.322;22.816;2023-09-19T05:32:55;14.32;;;9.52;;
22922;SDS011;11627;51.322;22.816;2023-09-19T05:35:23;16.52;;;10.50;;
22922;SDS011;11627;51.322;22.816;2023-09-19T05:37:51;14.32;;;9.40;;
22922;SDS011;11627;51.322;22.816;2023-09-19T05:40:20;15.60;;;9.88;;
22922;SDS011;11627;51.322;22.816;2023-09-19T05:42:47;19.35;;;12.13;;
22922;SDS011;11627;51.322;22.816;2023-09-19T05:45:17;17.83;;;11.55;;
22922;SDS011;11627;51.322;22.816;2023-09-19T05:47:52;12.07;;;9.43;;
22922;SDS011;11627;51.322;22.816;2023-09-19T05:50:28;13.60;;;9.82;;
22922;SDS011;11627;51.322;22.816;2023-09-19T05:52:55;15.02;;;9.38;;
22922;SDS011;11627;51.322;22.816;2023-09-19T05:55:27;15.63;;;9.05;;
22922;SDS011;11627;51.322;22.816;2023-09-19T05:57:56;17.27;;;10.18;;
22922;SDS011;11627;51.322;22.816;2023-09-19T06:00:23;13.85;;;9.65;;
22922;SDS011;11627;51.322;22.816;2023-09-19T06:03:12;17.98;;;9.18;;
22922;SDS011;11627;51.322;22.816;2023-09-19T06:05:40;13.05;;;9.35;;
22922;SDS011;11627;51.322;22.816;2023-09-19T06:08:09;16.00;;;9.15;;
22922;SDS011;11627;51.322;22.816;2023-09-19T06:10:36;16.13;;;9.35;;
22922;SDS011;11627;51.322;22.816;2023-09-19T06:13:04;13.20;;;8.43;;
22922;SDS011;11627;51.322;22.816;2023-09-19T06:15:32;13.25;;;9.00;;
22922;SDS011;11627;51.322;22.816;2023-09-19T06:17:59;13.82;;;8.43;;
22922;SDS011;11627;51.322;22.816;2023-09-19T06:20:29;15.00;;;8.40;;
22922;SDS011;11627;51.322;22.816;2023-09-19T06:22:56;12.48;;;8.50;;
22922;SDS011;11627;51.322;22.816;2023-09-19T06:25:23;14.23;;;8.85;;
22922;SDS011;11627;51.322;22.816;2023-09-19T06:27:52;11.57;;;8.63;;
22922;SDS011;11627;51.322;22.816;2023-09-19T06:30:23;13.05;;;8.43;;
22922;SDS011;11627;51.322;22.816;2023-09-19T06:33:00;12.90;;;8.70;;
22922;SDS011;11627;51.322;22.816;2023-09-19T06:35:26;11.32;;;8.35;;
22922;SDS011;11627;51.322;22.816;2023-09-19T06:37:56;12.57;;;7.93;;
22922;SDS011;11627;51.322;22.816;2023-09-19T06:40:24;11.05;;;7.32;;
22922;SDS011;11627;51.322;22.816;2023-09-19T06:42:52;11.73;;;8.10;;
22922;SDS011;11627;51.322;22.816;2023-09-19T06:45:19;11.77;;;8.15;;
22922;SDS011;11627;51.322;22.816;2023-09-19T06:47:47;10.27;;;7.93;;
22922;SDS011;11627;51.322;22.816;2023-09-19T06:50:21;10.02;;;7.50;;
22922;SDS011;11627;51.322;22.816;2023-09-19T06:52:49;12.10;;;7.45;;
22922;SDS011;11627;51.322;22.816;2023-09-19T06:55:21;9.20;;;7.47;;
22922;SDS011;11627;51.322;22.816;2023-09-19T06:57:51;12.98;;;7.50;;
22922;SDS011;11627;51.322;22.816;2023-09-19T07:00:19;12.30;;;8.00;;
22922;SDS011;11627;51.322;22.816;2023-09-19T07:03:04;11.20;;;7.57;;
22922;SDS011;11627;51.322;22.816;2023-09-19T07:05:34;9.27;;;7.28;;
22922;SDS011;11627;51.322;22.816;2023-09-19T07:08:10;10.75;;;7.72;;
22922;SDS011;11627;51.322;22.816;2023-09-19T07:10:39;11.52;;;7.85;;
22922;SDS011;11627;51.322;22.816;2023-09-19T07:13:07;11.63;;;7.60;;
22922;SDS011;11627;51.322;22.816;2023-09-19T07:15:38;10.43;;;7.18;;
22922;SDS011;11627;51.322;22.816;2023-09-19T07:18:07;10.13;;;7.07;;
22922;SDS011;11627;51.322;22.816;2023-09-19T07:20:37;12.85;;;7.20;;
22922;SDS011;11627;51.322;22.816;2023-09-19T07:23:11;9.70;;;7.05;;
22922;SDS011;11627;51.322;22.816;2023-09-19T07:25:42;9.43;;;7.13;;
22922;SDS011;11627;51.322;22.816;2023-09-19T07:28:09;10.50;;;7.20;;
22922;SDS011;11627;51.322;22.816;2023-09-19T07:30:39;10.02;;;7.13;;
22922;SDS011;11627;51.322;22.816;2023-09-19T07:33:07;9.38;;;6.97;;
22922;SDS011;11627;51.322;22.816;2023-09-19T07:35:37;13.82;;;7.50;;
22922;SDS011;11627;51.322;22.816;2023-09-19T07:38:15;12.32;;;7.13;;
22922;SDS011;11627;51.322;22.816;2023-09-19T07:40:43;11.43;;;6.88;;
22922;SDS011;11627;51.322;22.816;2023-09-19T07:43:10;11.05;;;7.10;;
22922;SDS011;11627;51.322;22.816;2023-09-19T07:45:37;11.02;;;6.68;;
22922;SDS011;11627;51.322;22.816;2023-09-19T07:48:03;12.27;;;7.43;;
22922;SDS011;11627;51.322;22.816;2023-09-19T07:50:33;12.20;;;7.30;;
22922;SDS011;11627;51.322;22.816;2023-09-19T07:53:03;10.55;;;6.95;;
22922;SDS011;11627;51.322;22.816;2023-09-19T07:55:30;8.70;;;6.80;;
22922;SDS011;11627;51.322;22.816;2023-09-19T07:57:59;14.50;;;7.50;;
22922;SDS011;11627;51.322;22.816;2023-09-19T08:00:25;7.32;;;6.20;;
22922;SDS011;11627;51.322;22.816;2023-09-19T08:02:51;7.63;;;6.03;;
22922;SDS011;11627;51.322;22.816;2023-09-19T08:05:17;8.93;;;7.22;;
22922;SDS011;11627;51.322;22.816;2023-09-19T08:07:44;12.25;;;7.65;;
22922;SDS011;11627;51.322;22.816;2023-09-19T08:10:14;12.50;;;7.30;;
22922;SDS011;11627;51.322;22.816;2023-09-19T08:12:44;8.05;;;6.63;;
22922;SDS011;11627;51.322;22.816;2023-09-19T08:15:14;16.27;;;7.05;;
22922;SDS011;11627;51.322;22.816;2023-09-19T08:17:44;10.07;;;7.20;;
22922;SDS011;11627;51.322;22.816;2023-09-19T08:20:11;8.63;;;7.35;;
22922;SDS011;11627;51.322;22.816;2023-09-19T08:22:50;8.90;;;7.40;;
22922;SDS011;11627;51.322;22.816;2023-09-19T08:25:23;10.48;;;7.63;;
22922;SDS011;11627;51.322;22.816;2023-09-19T08:27:53;10.60;;;7.57;;
22922;SDS011;11627;51.322;22.816;2023-09-19T08:30:25;8.23;;;6.78;;
22922;SDS011;11627;51.322;22.816;2023-09-19T08:32:58;18.75;;;7.70;;
22922;SDS011;11627;51.322;22.816;2023-09-19T08:35:25;11.02;;;7.10;;
22922;SDS011;11627;51.322;22.816;2023-09-19T08:37:54;8.70;;;7.07;;
22922;SDS011;11627;51.322;22.816;2023-09-19T08:40:25;9.88;;;7.43;;
22922;SDS011;11627;51.322;22.816;2023-09-19T08:42:56;11.90;;;7.00;;
22922;SDS011;11627;51.322;22.816;2023-09-19T08:45:23;10.52;;;7.15;;
22922;SDS011;11627;51.322;22.816;2023-09-19T08:50:30;9.82;;;7.57;;
22922;SDS011;11627;51.322;22.816;2023-09-19T08:53:00;11.90;;;7.13;;
22922;SDS011;11627;51.322;22.816;2023-09-19T08:55:27;14.35;;;7.63;;
22922;SDS011;11627;51.322;22.816;2023-09-19T08:58:02;13.40;;;7.05;;
22922;SDS011;11627;51.322;22.816;2023-09-19T09:00:29;10.93;;;7.60;;
22922;SDS011;11627;51.322;22.816;2023-09-19T09:02:56;8.68;;;6.95;;
22922;SDS011;11627;51.322;22.816;2023-09-19T09:05:24;10.23;;;7.75;;
22922;SDS011;11627;51.322;22.816;2023-09-19T09:07:51;11.05;;;7.68;;
22922;SDS011;11627;51.322;22.816;2023-09-19T09:10:19;11.40;;;7.60;;
22922;SDS011;11627;51.322;22.816;2023-09-19T09:12:52;10.57;;;7.35;;
22922;SDS011;11627;51.322;22.816;2023-09-19T09:15:23;11.02;;;7.70;;
22922;SDS011;11627;51.322;22.816;2023-09-19T09:17:52;10.68;;;8.15;;
22922;SDS011;11627;51.322;22.816;2023-09-19T09:20:18;11.85;;;8.30;;
22922;SDS011;11627;51.322;22.816;2023-09-19T09:22:51;11.40;;;7.95;;
22922;SDS011;11627;51.322;22.816;2023-09-19T09:25:19;14.63;;;8.45;;
22922;SDS011;11627;51.322;22.816;2023-09-19T09:27:58;10.98;;;8.52;;
22922;SDS011;11627;51.322;22.816;2023-09-19T09:30:33;13.52;;;9.18;;
22922;SDS011;11627;51.322;22.816;2023-09-19T09:33:10;11.80;;;9.05;;
22922;SDS011;11627;51.322;22.816;2023-09-19T09:38:29;14.45;;;9.00;;
22922;SDS011;11627;51.322;22.816;2023-09-19T09:41:09;17.77;;;9.43;;
22922;SDS011;11627;51.322;22.816;2023-09-19T09:43:40;14.00;;;9.45;;
22922;SDS011;11627;51.322;22.816;2023-09-19T09:46:13;13.35;;;8.88;;
22922;SDS011;11627;51.322;22.816;2023-09-19T09:49:02;11.85;;;8.65;;
22922;SDS011;11627;51.322;22.816;2023-09-19T09:51:50;11.50;;;9.45;;
22922;SDS011;11627;51.322;22.816;2023-09-19T09:54:28;12.88;;;9.85;;
22922;SDS011;11627;51.322;22.816;2023-09-19T09:57:05;21.42;;;10.38;;
22922;SDS011;11627;51.322;22.816;2023-09-19T10:02:49;22.17;;;13.43;;
22922;SDS011;11627;51.322;22.816;2023-09-19T10:05:16;21.77;;;13.82;;
22922;SDS011;11627;51.322;22.816;2023-09-19T10:08:12;15.90;;;11.50;;
22922;SDS011;11627;51.322;22.816;2023-09-19T10:10:43;14.30;;;10.45;;
22922;SDS011;11627;51.322;22.816;2023-09-19T10:13:19;14.35;;;10.75;;
22922;SDS011;11627;51.322;22.816;2023-09-19T10:15:53;18.05;;;10.85;;
22922;SDS011;11627;51.322;22.816;2023-09-19T10:18:21;15.40;;;10.57;;
22922;SDS011;11627;51.322;22.816;2023-09-19T10:20:49;14.95;;;10.88;;
22922;SDS011;11627;51.322;22.816;2023-09-19T10:23:19;16.98;;;10.35;;
22922;SDS011;11627;51.322;22.816;2023-09-19T10:25:51;14.65;;;9.98;;
22922;SDS011;11627;51.322;22.816;2023-09-19T10:28:18;16.13;;;10.95;;
22922;SDS011;11627;51.322;22.816;2023-09-19T10:30:49;16.52;;;10.07;;
22922;SDS011;11627;51.322;22.816;2023-09-19T10:33:18;15.00;;;11.43;;
22922;SDS011;11627;51.322;22.816;2023-09-19T10:35:47;15.50;;;10.43;;
22922;SDS011;11627;51.322;22.816;2023-09-19T10:38:23;14.63;;;11.10;;
22922;SDS011;11627;51.322;22.816;2023-09-19T10:40:51;13.65;;;10.73;;
22922;SDS011;11627;51.322;22.816;2023-09-19T10:43:29;15.02;;;9.77;;
22922;SDS011;11627;51.322;22.816;2023-09-19T10:46:02;11.07;;;8.77;;
22922;SDS011;11627;51.322;22.816;2023-09-19T10:48:35;13.27;;;9.20;;
22922;SDS011;11627;51.322;22.816;2023-09-19T10:51:08;10.82;;;8.60;;
22922;SDS011;11627;51.322;22.816;2023-09-19T10:53:57;13.55;;;8.77;;
22922;SDS011;11627;51.322;22.816;2023-09-19T10:56:38;14.32;;;8.77;;
22922;SDS011;11627;51.322;22.816;2023-09-19T11:01:50;12.95;;;8.43;;
22922;SDS011;11627;51.322;22.816;2023-09-19T11:04:35;10.35;;;7.82;;
22922;SDS011;11627;51.322;22.816;2023-09-19T11:07:11;11.07;;;7.75;;
22922;SDS011;11627;51.322;22.816;2023-09-19T11:15:06;9.45;;;7.65;;
22922;SDS011;11627;51.322;22.816;2023-09-19T11:17:34;12.85;;;7.30;;
22922;SDS011;11627;51.322;22.816;2023-09-19T11:30:44;8.70;;;6.72;;
22922;SDS011;11627;51.322;22.816;2023-09-19T11:33:30;8.02;;;7.22;;
22922;SDS011;11627;51.322;22.816;2023-09-19T11:35:59;10.68;;;7.55;;
22922;SDS011;11627;51.322;22.816;2023-09-19T11:47:14;9.85;;;8.00;;
22922;SDS011;11627;51.322;22.816;2023-09-19T11:49:31;13.70;;;9.57;;
22922;SDS011;11627;51.322;22.816;2023-09-19T11:52:00;11.00;;;9.35;;
22922;SDS011;11627;51.322;22.816;2023-09-19T11:54:33;16.27;;;10.40;;
22922;SDS011;11627;51.322;22.816;2023-09-19T11:57:02;14.18;;;10.70;;
22922;SDS011;11627;51.322;22.816;2023-09-19T11:59:29;18.83;;;11.52;;
22922;SDS011;11627;51.322;22.816;2023-09-19T12:04:38;15.82;;;11.45;;
22922;SDS011;11627;51.322;22.816;2023-09-19T12:07:09;14.57;;;11.48;;
22922;SDS011;11627;51.322;22.816;2023-09-19T12:09:46;15.65;;;11.55;;
22922;SDS011;11627;51.322;22.816;2023-09-19T12:12:24;17.70;;;12.10;;
22922;SDS011;11627;51.322;22.816;2023-09-19T12:14:55;15.95;;;12.25;;
22922;SDS011;11627;51.322;22.816;2023-09-19T12:17:37;15.98;;;12.70;;
22922;SDS011;11627;51.322;22.816;2023-09-19T12:20:07;17.10;;;12.80;;
22922;SDS011;11627;51.322;22.816;2023-09-19T12:22:43;15.70;;;12.25;;
22922;SDS011;11627;51.322;22.816;2023-09-19T12:25:11;15.50;;;12.40;;
22922;SDS011;11627;51.322;22.816;2023-09-19T12:27:47;17.77;;;13.18;;
22922;SDS011;11627;51.322;22.816;2023-09-19T12:30:18;19.98;;;13.23;;
22922;SDS011;11627;51.322;22.816;2023-09-19T12:32:48;17.30;;;13.02;;
22922;SDS011;11627;51.322;22.816;2023-09-19T12:35:27;17.60;;;13.68;;
22922;SDS011;11627;51.322;22.816;2023-09-19T12:37:56;17.77;;;13.85;;
22922;SDS011;11627;51.322;22.816;2023-09-19T12:40:24;16.30;;;13.73;;
22922;SDS011;11627;51.322;22.816;2023-09-19T12:42:52;18.38;;;13.82;;
22922;SDS011;11627;51.322;22.816;2023-09-19T12:45:24;15.07;;;13.00;;
22922;SDS011;11627;51.322;22.816;2023-09-19T12:51:34;22.83;;;13.63;;
22922;SDS011;11627;51.322;22.816;2023-09-19T12:53:56;17.20;;;13.00;;
22922;SDS011;11627;51.322;22.816;2023-09-19T12:56:24;15.85;;;13.55;;
22922;SDS011;11627;51.322;22.816;2023-09-19T12:58:52;16.75;;;13.48;;
22922;SDS011;11627;51.322;22.816;2023-09-19T13:01:28;17.40;;;13.52;;
22922;SDS011;11627;51.322;22.816;2023-09-19T13:04:10;15.20;;;13.13;;
22922;SDS011;11627;51.322;22.816;2023-09-19T13:06:50;18.08;;;13.77;;
22922;SDS011;11627;51.322;22.816;2023-09-19T13:09:17;16.67;;;13.15;;
22922;SDS011;11627;51.322;22.816;2023-09-19T13:11:46;19.00;;;13.65;;
22922;SDS011;11627;51.322;22.816;2023-09-19T13:17:02;15.20;;;12.80;;
22922;SDS011;11627;51.322;22.816;2023-09-19T13:19:47;16.48;;;13.75;;
22922;SDS011;11627;51.322;22.816;2023-09-19T13:25:13;21.13;;;13.82;;
22922;SDS011;11627;51.322;22.816;2023-09-19T13:27:47;20.15;;;13.38;;
22922;SDS011;11627;51.322;22.816;2023-09-19T13:30:24;18.05;;;13.45;;
22922;SDS011;11627;51.322;22.816;2023-09-19T13:33:10;17.73;;;13.57;;
22922;SDS011;11627;51.322;22.816;2023-09-19T13:35:39;14.45;;;12.05;;
22922;SDS011;11627;51.322;22.816;2023-09-19T13:38:06;17.00;;;13.65;;
22922;SDS011;11627;51.322;22.816;2023-09-19T13:40:36;16.35;;;12.50;;
22922;SDS011;11627;51.322;22.816;2023-09-19T13:43:06;17.67;;;13.25;;
22922;SDS011;11627;51.322;22.816;2023-09-19T13:45:33;17.75;;;13.73;;
22922;SDS011;11627;51.322;22.816;2023-09-19T13:47:59;16.98;;;13.07;;
22922;SDS011;11627;51.322;22.816;2023-09-19T13:50:26;17.35;;;14.48;;
22922;SDS011;11627;51.322;22.816;2023-09-19T13:52:55;19.10;;;14.13;;
22922;SDS011;11627;51.322;22.816;2023-09-19T13:55:21;14.10;;;11.73;;
22922;SDS011;11627;51.322;22.816;2023-09-19T13:57:49;13.80;;;11.57;;
22922;SDS011;11627;51.322;22.816;2023-09-19T14:00:17;15.25;;;12.07;;
22922;SDS011;11627;51.322;22.816;2023-09-19T14:02:43;13.52;;;11.45;;
22922;SDS011;11627;51.322;22.816;2023-09-19T14:05:10;14.32;;;11.98;;
22922;SDS011;11627;51.322;22.816;2023-09-19T14:07:40;14.68;;;12.75;;
22922;SDS011;11627;51.322;22.816;2023-09-19T14:10:06;13.52;;;12.07;;
22922;SDS011;11627;51.322;22.816;2023-09-19T14:12:33;15.80;;;12.82;;
22922;SDS011;11627;51.322;22.816;2023-09-19T14:15:00;18.85;;;13.10;;
22922;SDS011;11627;51.322;22.816;2023-09-19T14:17:26;17.38;;;12.73;;
22922;SDS011;11627;51.322;22.816;2023-09-19T14:19:53;15.02;;;12.98;;
22922;SDS011;11627;51.322;22.816;2023-09-19T14:22:19;14.50;;;12.23;;
22922;SDS011;11627;51.322;22.816;2023-09-19T14:24:44;14.65;;;12.38;;
22922;SDS011;11627;51.322;22.816;2023-09-19T14:27:12;14.70;;;12.25;;
22922;SDS011;11627;51.322;22.816;2023-09-19T14:29:38;13.82;;;11.63;;
22922;SDS011;11627;51.322;22.816;2023-09-19T14:32:04;14.27;;;12.13;;
22922;SDS011;11627;51.322;22.816;2023-09-19T14:34:32;12.93;;;10.70;;
22922;SDS011;11627;51.322;22.816;2023-09-19T14:36:58;14.93;;;11.70;;
22922;SDS011;11627;51.322;22.816;2023-09-19T14:39:24;13.93;;;11.00;;
22922;SDS011;11627;51.322;22.816;2023-09-19T14:41:50;14.07;;;12.02;;
22922;SDS011;11627;51.322;22.816;2023-09-19T14:44:16;16.35;;;12.25;;
22922;SDS011;11627;51.322;22.816;2023-09-19T14:46:42;14.32;;;12.27;;
22922;SDS011;11627;51.322;22.816;2023-09-19T14:49:11;13.32;;;11.07;;
22922;SDS011;11627;51.322;22.816;2023-09-19T14:51:38;12.88;;;10.88;;
22922;SDS011;11627;51.322;22.816;2023-09-19T14:54:09;14.50;;;10.63;;
22922;SDS011;11627;51.322;22.816;2023-09-19T14:56:35;13.35;;;10.63;;
22922;SDS011;11627;51.322;22.816;2023-09-19T14:59:02;12.85;;;10.50;;
22922;SDS011;11627;51.322;22.816;2023-09-19T15:01:28;15.77;;;11.70;;
22922;SDS011;11627;51.322;22.816;2023-09-19T15:03:55;12.75;;;11.27;;
22922;SDS011;11627;51.322;22.816;2023-09-19T15:06:21;13.35;;;11.27;;
22922;SDS011;11627;51.322;22.816;2023-09-19T15:08:47;14.05;;;11.18;;
22922;SDS011;11627;51.322;22.816;2023-09-19T15:11:18;11.45;;;9.85;;
22922;SDS011;11627;51.322;22.816;2023-09-19T15:13:45;13.35;;;10.82;;
22922;SDS011;11627;51.322;22.816;2023-09-19T15:16:12;14.48;;;11.38;;
22922;SDS011;11627;51.322;22.816;2023-09-19T15:18:40;13.85;;;11.38;;
22922;SDS011;11627;51.322;22.816;2023-09-19T15:21:08;17.50;;;12.57;;
22922;SDS011;11627;51.322;22.816;2023-09-19T15:23:36;14.80;;;11.98;;
22922;SDS011;11627;51.322;22.816;2023-09-19T15:26:04;16.42;;;11.32;;
22922;SDS011;11627;51.322;22.816;2023-09-19T15:28:33;17.35;;;12.90;;
22922;SDS011;11627;51.322;22.816;2023-09-19T15:31:00;16.88;;;13.43;;
22922;SDS011;11627;51.322;22.816;2023-09-19T15:33:29;14.93;;;12.15;;
22922;SDS011;11627;51.322;22.816;2023-09-19T15:36:05;14.20;;;11.80;;
22922;SDS011;11627;51.322;22.816;2023-09-19T15:41:36;14.48;;;12.80;;
22922;SDS011;11627;51.322;22.816;2023-09-19T15:44:04;16.30;;;12.70;;
22922;SDS011;11627;51.322;22.816;2023-09-19T15:46:37;15.60;;;13.27;;